sensor_id;sensor_type;location;lat;lon;timestamp;P1;durP1;ratioP1;P2;durP2;ratioP2
37847;SDS011;23688;33.130;-117.188;2022-09-21T00:01:06;4.05;;;1.00;;
37847;SDS011;23688;33.130;-117.188;2022-09-21T00:03:34;6.82;;;1.35;;
37847;SDS011;23688;33.130;-117.188;2022-09-21T00:06:07;2.85;;;0.90;;
37847;SDS011;23688;33.130;-117.188;2022-09-21T00:08:36;4.35;;;1.23;;
37847;SDS011;23688;33.130;-117.188;2022-09-21T00:11:02;4.53;;;0.90;;
37847;SDS011;23688;33.130;-117.188;2022-09-21T00:13:32;4.25;;;1.38;;
37847;SDS011;23688;33.130;-117.188;2022-09-21T00:16:05;4.00;;;1.00;;
37847;SDS011;23688;33.130;-117.188;2022-09-21T00:18:32;3.92;;;1.02;;
37847;SDS011;23688;33.130;-117.188;2022-09-21T00:21:00;5.57;;;1.13;;
37847;SDS011;23688;33.130;-117.188;2022-09-21T00:23:30;5.25;;;1.05;;
37847;SDS011;23688;33.130;-117.188;2022-09-21T00:26:09;2.30;;;0.90;;
37847;SDS011;23688;33.130;-117.188;2022-09-21T00:31:05;6.55;;;1.27;;
37847;SDS011;23688;33.130;-117.188;2022-09-21T00:33:36;2.58;;;0.90;;
37847;SDS011;23688;33.130;-117.188;2022-09-21T00:36:07;2.92;;;1.30;;
37847;SDS011;23688;33.130;-117.188;2022-09-21T00:38:37;3.70;;;1.08;;
37847;SDS011;23688;33.130;-117.188;2022-09-21T00:41:04;4.03;;;0.98;;
37847;SDS011;23688;33.130;-117.188;2022-09-21T00:43:33;4.00;;;1.25;;
37847;SDS011;23688;33.130;-117.188;2022-09-21T00:48:37;4.65;;;1.00;;
37847;SDS011;23688;33.130;-117.188;2022-09-21T00:51:05;1.88;;;0.98;;
37847;SDS011;23688;33.130;-117.188;2022-09-21T00:53:32;5.70;;;1.55;;
37847;SDS011;23688;33.130;-117.188;2022-09-21T00:55:59;2.78;;;0.98;;
37847;SDS011;23688;33.130;-117.188;2022-09-21T00:58:29;14.75;;;1.40;;
37847;SDS011;23688;33.130;-117.188;2022-09-21T01:00:57;2.55;;;1.08;;
37847;SDS011;23688;33.130;-117.188;2022-09-21T01:03:25;2.65;;;1.23;;
37847;SDS011;23688;33.130;-117.188;2022-09-21T01:05:53;4.30;;;1.58;;
37847;SDS011;23688;33.130;-117.188;2022-09-21T01:08:20;3.10;;;1.30;;
37847;SDS011;23688;33.130;-117.188;2022-09-21T01:19:26;3.90;;;1.30;;
37847;SDS011;23688;33.130;-117.188;2022-09-21T01:27:25;5.53;;;1.50;;
37847;SDS011;23688;33.130;-117.188;2022-09-21T01:30:18;4.93;;;1.63;;
37847;SDS011;23688;33.130;-117.188;2022-09-21T01:32:48;6.38;;;1.48;;
37847;SDS011;23688;33.130;-117.188;2022-09-21T01:35:40;7.25;;;1.48;;
37847;SDS011;23688;33.130;-117.188;2022-09-21T01:38:25;5.32;;;1.30;;
37847;SDS011;23688;33.130;-117.188;2022-09-21T01:41:00;4.43;;;1.40;;
37847;SDS011;23688;33.130;-117.188;2022-09-21T01:43:39;7.70;;;1.13;;
37847;SDS011;23688;33.130;-117.188;2022-09-21T01:46:10;4.90;;;2.25;;
37847;SDS011;23688;33.130;-117.188;2022-09-21T01:48:43;8.30;;;1.50;;
37847;SDS011;23688;33.130;-117.188;2022-09-21T01:51:12;5.22;;;1.35;;
37847;SDS011;23688;33.130;-117.188;2022-09-21T01:53:43;3.75;;;1.30;;
37847;SDS011;23688;33.130;-117.188;2022-09-21T02:01:37;3.67;;;1.90;;
37847;SDS011;23688;33.130;-117.188;2022-09-21T02:04:11;8.27;;;1.65;;
37847;SDS011;23688;33.130;-117.188;2022-09-21T02:06:39;6.50;;;1.80;;
37847;SDS011;23688;33.130;-117.188;2022-09-21T02:09:09;5.45;;;1.30;;
37847;SDS011;23688;33.130;-117.188;2022-09-21T02:11:36;6.82;;;1.45;;
37847;SDS011;23688;33.130;-117.188;2022-09-21T02:14:15;6.43;;;1.60;;
37847;SDS011;23688;33.130;-117.188;2022-09-21T02:19:26;8.88;;;2.13;;
37847;SDS011;23688;33.130;-117.188;2022-09-21T02:25:08;9.75;;;1.60;;
37847;SDS011;23688;33.130;-117.188;2022-09-21T02:27:43;9.23;;;2.17;;
37847;SDS011;23688;33.130;-117.188;2022-09-21T02:30:20;2.67;;;1.38;;
37847;SDS011;23688;33.130;-117.188;2022-09-21T02:46:30;9.50;;;1.63;;
37847;SDS011;23688;33.130;-117.188;2022-09-21T02:49:04;4.93;;;1.45;;
37847;SDS011;23688;33.130;-117.188;2022-09-21T02:51:37;4.75;;;1.50;;
37847;SDS011;23688;33.130;-117.188;2022-09-21T02:54:07;6.32;;;1.55;;
37847;SDS011;23688;33.130;-117.188;2022-09-21T02:56:37;7.25;;;1.60;;
37847;SDS011;23688;33.130;-117.188;2022-09-21T02:59:06;10.68;;;1.67;;
37847;SDS011;23688;33.130;-117.188;2022-09-21T03:01:33;7.25;;;1.52;;
37847;SDS011;23688;33.130;-117.188;2022-09-21T03:04:00;4.50;;;1.23;;
37847;SDS011;23688;33.130;-117.188;2022-09-21T03:06:26;6.13;;;1.52;;
37847;SDS011;23688;33.130;-117.188;2022-09-21T03:08:53;7.65;;;1.42;;
37847;SDS011;23688;33.130;-117.188;2022-09-21T03:11:20;6.40;;;1.80;;
37847;SDS011;23688;33.130;-117.188;2022-09-21T03:13:47;7.60;;;1.30;;
37847;SDS011;23688;33.130;-117.188;2022-09-21T03:16:13;7.28;;;1.58;;
37847;SDS011;23688;33.130;-117.188;2022-09-21T03:18:39;3.70;;;1.30;;
37847;SDS011;23688;33.130;-117.188;2022-09-21T03:21:11;6.93;;;1.88;;
37847;SDS011;23688;33.130;-117.188;2022-09-21T03:23:38;6.93;;;1.55;;
37847;SDS011;23688;33.130;-117.188;2022-09-21T03:26:05;6.30;;;1.88;;
37847;SDS011;23688;33.130;-117.188;2022-09-21T03:28:32;8.40;;;1.95;;
37847;SDS011;23688;33.130;-117.188;2022-09-21T03:30:59;11.85;;;3.10;;
37847;SDS011;23688;33.130;-117.188;2022-09-21T03:33:25;16.60;;;2.38;;
37847;SDS011;23688;33.130;-117.188;2022-09-21T03:35:51;9.93;;;2.33;;
37847;SDS011;23688;33.130;-117.188;2022-09-21T03:38:18;13.07;;;2.17;;
37847;SDS011;23688;33.130;-117.188;2022-09-21T03:40:46;7.35;;;2.03;;
37847;SDS011;23688;33.130;-117.188;2022-09-21T03:43:13;7.30;;;1.77;;
37847;SDS011;23688;33.130;-117.188;2022-09-21T03:45:40;6.70;;;1.77;;
37847;SDS011;23688;33.130;-117.188;2022-09-21T03:48:08;8.88;;;1.85;;
37847;SDS011;23688;33.130;-117.188;2022-09-21T03:50:36;7.50;;;1.38;;
37847;SDS011;23688;33.130;-117.188;2022-09-21T03:55:30;11.85;;;2.83;;
37847;SDS011;23688;33.130;-117.188;2022-09-21T03:57:57;7.93;;;1.90;;
37847;SDS011;23688;33.130;-117.188;2022-09-21T04:00:24;6.28;;;1.63;;
37847;SDS011;23688;33.130;-117.188;2022-09-21T04:02:50;12.02;;;2.60;;
37847;SDS011;23688;33.130;-117.188;2022-09-21T04:05:17;6.03;;;1.92;;
37847;SDS011;23688;33.130;-117.188;2022-09-21T04:07:43;12.77;;;1.92;;
37847;SDS011;23688;33.130;-117.188;2022-09-21T04:10:17;8.52;;;1.90;;
37847;SDS011;23688;33.130;-117.188;2022-09-21T04:12:45;9.55;;;2.08;;
37847;SDS011;23688;33.130;-117.188;2022-09-21T04:15:13;7.53;;;2.10;;
37847;SDS011;23688;33.130;-117.188;2022-09-21T04:17:43;5.72;;;1.70;;
37847;SDS011;23688;33.130;-117.188;2022-09-21T04:20:10;9.52;;;2.03;;
37847;SDS011;23688;33.130;-117.188;2022-09-21T04:22:36;7.30;;;1.77;;
37847;SDS011;23688;33.130;-117.188;2022-09-21T04:25:03;12.32;;;2.20;;
37847;SDS011;23688;33.130;-117.188;2022-09-21T04:27:31;8.23;;;1.73;;
37847;SDS011;23688;33.130;-117.188;2022-09-21T04:29:58;10.35;;;1.80;;
37847;SDS011;23688;33.130;-117.188;2022-09-21T04:32:25;4.50;;;2.00;;
37847;SDS011;23688;33.130;-117.188;2022-09-21T04:34:51;12.02;;;2.10;;
37847;SDS011;23688;33.130;-117.188;2022-09-21T04:37:17;9.45;;;2.13;;
37847;SDS011;23688;33.130;-117.188;2022-09-21T04:39:45;7.60;;;1.70;;
37847;SDS011;23688;33.130;-117.188;2022-09-21T04:42:11;14.68;;;2.63;;
37847;SDS011;23688;33.130;-117.188;2022-09-21T04:44:38;7.30;;;2.08;;
37847;SDS011;23688;33.130;-117.188;2022-09-21T04:47:04;8.10;;;1.70;;
37847;SDS011;23688;33.130;-117.188;2022-09-21T04:49:30;9.20;;;1.95;;
37847;SDS011;23688;33.130;-117.188;2022-09-21T04:51:57;7.28;;;1.55;;
37847;SDS011;23688;33.130;-117.188;2022-09-21T04:54:23;9.85;;;1.77;;
37847;SDS011;23688;33.130;-117.188;2022-09-21T04:56:49;4.10;;;1.50;;
37847;SDS011;23688;33.130;-117.188;2022-09-21T04:59:17;7.55;;;1.70;;
37847;SDS011;23688;33.130;-117.188;2022-09-21T05:01:43;9.18;;;2.30;;
37847;SDS011;23688;33.130;-117.188;2022-09-21T05:04:09;4.55;;;1.85;;
37847;SDS011;23688;33.130;-117.188;2022-09-21T05:06:36;6.75;;;1.70;;
37847;SDS011;23688;33.130;-117.188;2022-09-21T05:09:02;12.27;;;1.80;;
37847;SDS011;23688;33.130;-117.188;2022-09-21T05:11:47;7.15;;;1.70;;
37847;SDS011;23688;33.130;-117.188;2022-09-21T05:14:14;7.00;;;1.55;;
37847;SDS011;23688;33.130;-117.188;2022-09-21T05:16:40;11.95;;;2.00;;
37847;SDS011;23688;33.130;-117.188;2022-09-21T05:19:06;6.78;;;1.98;;
37847;SDS011;23688;33.130;-117.188;2022-09-21T05:21:34;8.60;;;2.00;;
37847;SDS011;23688;33.130;-117.188;2022-09-21T05:24:01;11.80;;;1.98;;
37847;SDS011;23688;33.130;-117.188;2022-09-21T05:26:29;14.25;;;2.47;;
37847;SDS011;23688;33.130;-117.188;2022-09-21T05:28:56;9.70;;;2.10;;
37847;SDS011;23688;33.130;-117.188;2022-09-21T05:31:40;7.53;;;1.90;;
37847;SDS011;23688;33.130;-117.188;2022-09-21T05:39:31;10.77;;;2.20;;
37847;SDS011;23688;33.130;-117.188;2022-09-21T05:42:01;17.33;;;2.55;;
37847;SDS011;23688;33.130;-117.188;2022-09-21T05:44:32;11.15;;;2.08;;
37847;SDS011;23688;33.130;-117.188;2022-09-21T05:47:09;5.53;;;2.10;;
37847;SDS011;23688;33.130;-117.188;2022-09-21T05:55:50;6.00;;;2.53;;
37847;SDS011;23688;33.130;-117.188;2022-09-21T05:58:25;10.85;;;2.58;;
37847;SDS011;23688;33.130;-117.188;2022-09-21T06:01:25;13.43;;;2.90;;
37847;SDS011;23688;33.130;-117.188;2022-09-21T06:04:12;8.23;;;2.38;;
37847;SDS011;23688;33.130;-117.188;2022-09-21T06:06:40;10.07;;;2.70;;
37847;SDS011;23688;33.130;-117.188;2022-09-21T06:09:07;12.55;;;2.72;;
37847;SDS011;23688;33.130;-117.188;2022-09-21T06:11:33;8.82;;;2.20;;
37847;SDS011;23688;33.130;-117.188;2022-09-21T06:14:00;12.07;;;2.58;;
37847;SDS011;23688;33.130;-117.188;2022-09-21T06:16:35;11.15;;;2.60;;
37847;SDS011;23688;33.130;-117.188;2022-09-21T06:19:04;13.82;;;2.65;;
37847;SDS011;23688;33.130;-117.188;2022-09-21T06:21:30;5.88;;;1.92;;
37847;SDS011;23688;33.130;-117.188;2022-09-21T06:23:57;15.48;;;2.55;;
37847;SDS011;23688;33.130;-117.188;2022-09-21T06:26:23;17.88;;;3.53;;
37847;SDS011;23688;33.130;-117.188;2022-09-21T06:28:50;9.45;;;2.50;;
37847;SDS011;23688;33.130;-117.188;2022-09-21T06:31:16;8.50;;;2.67;;
37847;SDS011;23688;33.130;-117.188;2022-09-21T06:33:42;7.63;;;2.63;;
37847;SDS011;23688;33.130;-117.188;2022-09-21T06:36:08;17.35;;;3.20;;
37847;SDS011;23688;33.130;-117.188;2022-09-21T06:38:35;11.45;;;2.85;;
37847;SDS011;23688;33.130;-117.188;2022-09-21T06:41:01;5.78;;;1.92;;
37847;SDS011;23688;33.130;-117.188;2022-09-21T06:43:29;10.68;;;2.65;;
37847;SDS011;23688;33.130;-117.188;2022-09-21T06:45:57;10.32;;;2.65;;
37847;SDS011;23688;33.130;-117.188;2022-09-21T06:48:25;9.68;;;2.45;;
37847;SDS011;23688;33.130;-117.188;2022-09-21T06:50:59;11.73;;;2.88;;
37847;SDS011;23688;33.130;-117.188;2022-09-21T06:53:31;12.48;;;3.28;;
37847;SDS011;23688;33.130;-117.188;2022-09-21T06:55:59;11.57;;;2.70;;
37847;SDS011;23688;33.130;-117.188;2022-09-21T06:58:28;13.48;;;2.42;;
37847;SDS011;23688;33.130;-117.188;2022-09-21T07:00:55;8.32;;;2.72;;
37847;SDS011;23688;33.130;-117.188;2022-09-21T07:03:21;11.68;;;2.10;;
37847;SDS011;23688;33.130;-117.188;2022-09-21T07:05:48;7.18;;;2.33;;
37847;SDS011;23688;33.130;-117.188;2022-09-21T07:08:16;13.05;;;2.58;;
37847;SDS011;23688;33.130;-117.188;2022-09-21T07:10:42;5.75;;;2.20;;
37847;SDS011;23688;33.130;-117.188;2022-09-21T07:13:09;9.65;;;2.92;;
37847;SDS011;23688;33.130;-117.188;2022-09-21T07:15:37;11.75;;;3.08;;
37847;SDS011;23688;33.130;-117.188;2022-09-21T07:18:09;10.98;;;2.53;;
37847;SDS011;23688;33.130;-117.188;2022-09-21T07:20:39;10.45;;;2.40;;
37847;SDS011;23688;33.130;-117.188;2022-09-21T07:23:11;8.38;;;2.28;;
37847;SDS011;23688;33.130;-117.188;2022-09-21T07:25:45;7.97;;;1.95;;
37847;SDS011;23688;33.130;-117.188;2022-09-21T07:28:17;10.10;;;2.22;;
37847;SDS011;23688;33.130;-117.188;2022-09-21T07:30:44;7.15;;;2.45;;
37847;SDS011;23688;33.130;-117.188;2022-09-21T07:33:10;7.25;;;2.22;;
37847;SDS011;23688;33.130;-117.188;2022-09-21T07:35:36;5.70;;;2.03;;
37847;SDS011;23688;33.130;-117.188;2022-09-21T07:38:04;9.07;;;2.17;;
37847;SDS011;23688;33.130;-117.188;2022-09-21T07:40:32;14.68;;;2.83;;
37847;SDS011;23688;33.130;-117.188;2022-09-21T07:42:59;12.63;;;3.37;;
37847;SDS011;23688;33.130;-117.188;2022-09-21T07:45:29;8.90;;;2.40;;
37847;SDS011;23688;33.130;-117.188;2022-09-21T07:48:04;10.02;;;2.55;;
37847;SDS011;23688;33.130;-117.188;2022-09-21T07:50:31;11.60;;;3.22;;
37847;SDS011;23688;33.130;-117.188;2022-09-21T07:53:01;7.32;;;2.53;;
37847;SDS011;23688;33.130;-117.188;2022-09-21T07:55:28;8.15;;;2.50;;
37847;SDS011;23688;33.130;-117.188;2022-09-21T07:57:54;12.40;;;3.72;;
37847;SDS011;23688;33.130;-117.188;2022-09-21T08:00:49;9.32;;;2.35;;
37847;SDS011;23688;33.130;-117.188;2022-09-21T08:03:16;9.55;;;3.13;;
37847;SDS011;23688;33.130;-117.188;2022-09-21T08:05:43;8.40;;;2.70;;
37847;SDS011;23688;33.130;-117.188;2022-09-21T08:08:12;5.85;;;2.58;;
37847;SDS011;23688;33.130;-117.188;2022-09-21T08:10:39;9.23;;;2.17;;
37847;SDS011;23688;33.130;-117.188;2022-09-21T08:13:06;7.97;;;2.53;;
37847;SDS011;23688;33.130;-117.188;2022-09-21T08:15:32;10.32;;;3.05;;
37847;SDS011;23688;33.130;-117.188;2022-09-21T08:17:58;10.63;;;2.72;;
37847;SDS011;23688;33.130;-117.188;2022-09-21T08:20:25;7.97;;;2.33;;
37847;SDS011;23688;33.130;-117.188;2022-09-21T08:22:53;12.77;;;2.42;;
37847;SDS011;23688;33.130;-117.188;2022-09-21T08:25:20;13.57;;;2.65;;
37847;SDS011;23688;33.130;-117.188;2022-09-21T08:27:48;9.40;;;3.08;;
37847;SDS011;23688;33.130;-117.188;2022-09-21T08:30:14;9.80;;;2.58;;
37847;SDS011;23688;33.130;-117.188;2022-09-21T08:32:40;8.95;;;2.83;;
37847;SDS011;23688;33.130;-117.188;2022-09-21T08:35:07;12.98;;;2.88;;
37847;SDS011;23688;33.130;-117.188;2022-09-21T08:37:33;13.48;;;2.67;;
37847;SDS011;23688;33.130;-117.188;2022-09-21T08:40:02;11.88;;;2.55;;
37847;SDS011;23688;33.130;-117.188;2022-09-21T08:42:50;12.00;;;2.80;;
37847;SDS011;23688;33.130;-117.188;2022-09-21T08:45:41;7.38;;;2.70;;
37847;SDS011;23688;33.130;-117.188;2022-09-21T08:48:15;11.00;;;2.78;;
37847;SDS011;23688;33.130;-117.188;2022-09-21T08:50:58;10.18;;;2.80;;
37847;SDS011;23688;33.130;-117.188;2022-09-21T08:53:32;16.05;;;3.22;;
37847;SDS011;23688;33.130;-117.188;2022-09-21T08:56:03;13.27;;;2.78;;
37847;SDS011;23688;33.130;-117.188;2022-09-21T08:58:30;8.27;;;2.17;;
37847;SDS011;23688;33.130;-117.188;2022-09-21T09:06:19;14.32;;;3.28;;
37847;SDS011;23688;33.130;-117.188;2022-09-21T09:12:13;8.55;;;2.78;;
37847;SDS011;23688;33.130;-117.188;2022-09-21T09:21:31;6.82;;;2.95;;
37847;SDS011;23688;33.130;-117.188;2022-09-21T09:26:55;8.05;;;2.33;;
37847;SDS011;23688;33.130;-117.188;2022-09-21T09:29:54;9.95;;;2.70;;
37847;SDS011;23688;33.130;-117.188;2022-09-21T09:32:46;8.40;;;2.58;;
37847;SDS011;23688;33.130;-117.188;2022-09-21T09:40:55;9.10;;;2.50;;
37847;SDS011;23688;33.130;-117.188;2022-09-21T09:49:37;6.07;;;2.30;;
37847;SDS011;23688;33.130;-117.188;2022-09-21T09:52:22;4.47;;;2.38;;
37847;SDS011;23688;33.130;-117.188;2022-09-21T09:54:50;11.82;;;2.65;;
37847;SDS011;23688;33.130;-117.188;2022-09-21T09:57:19;6.28;;;2.15;;
37847;SDS011;23688;33.130;-117.188;2022-09-21T09:59:54;4.07;;;1.85;;
37847;SDS011;23688;33.130;-117.188;2022-09-21T10:02:26;17.33;;;2.30;;
37847;SDS011;23688;33.130;-117.188;2022-09-21T10:05:03;9.57;;;2.17;;
37847;SDS011;23688;33.130;-117.188;2022-09-21T10:10:00;4.97;;;1.80;;
37847;SDS011;23688;33.130;-117.188;2022-09-21T10:12:26;6.60;;;1.98;;
37847;SDS011;23688;33.130;-117.188;2022-09-21T10:14:54;8.30;;;1.92;;
37847;SDS011;23688;33.130;-117.188;2022-09-21T10:17:24;8.43;;;1.73;;
37847;SDS011;23688;33.130;-117.188;2022-09-21T10:20:00;4.60;;;1.70;;
37847;SDS011;23688;33.130;-117.188;2022-09-21T10:22:28;9.57;;;1.87;;
37847;SDS011;23688;33.130;-117.188;2022-09-21T10:24:55;8.80;;;1.98;;
37847;SDS011;23688;33.130;-117.188;2022-09-21T10:27:26;4.82;;;1.90;;
37847;SDS011;23688;33.130;-117.188;2022-09-21T10:30:00;14.40;;;2.78;;
37847;SDS011;23688;33.130;-117.188;2022-09-21T10:32:27;11.18;;;2.20;;
37847;SDS011;23688;33.130;-117.188;2022-09-21T10:37:34;10.75;;;2.17;;
37847;SDS011;23688;33.130;-117.188;2022-09-21T10:42:45;6.78;;;1.85;;
37847;SDS011;23688;33.130;-117.188;2022-09-21T10:45:21;6.15;;;1.70;;
37847;SDS011;23688;33.130;-117.188;2022-09-21T10:47:56;8.73;;;1.90;;
37847;SDS011;23688;33.130;-117.188;2022-09-21T10:50:40;7.00;;;1.98;;
37847;SDS011;23688;33.130;-117.188;2022-09-21T10:58:28;7.80;;;1.60;;
37847;SDS011;23688;33.130;-117.188;2022-09-21T11:00:56;8.18;;;2.00;;
37847;SDS011;23688;33.130;-117.188;2022-09-21T11:06:42;10.32;;;2.33;;
37847;SDS011;23688;33.130;-117.188;2022-09-21T11:09:17;7.07;;;1.83;;
37847;SDS011;23688;33.130;-117.188;2022-09-21T11:12:16;16.20;;;2.28;;
37847;SDS011;23688;33.130;-117.188;2022-09-21T11:17:43;11.10;;;2.65;;
37847;SDS011;23688;33.130;-117.188;2022-09-21T11:20:19;10.68;;;2.15;;
37847;SDS011;23688;33.130;-117.188;2022-09-21T11:31:58;8.07;;;2.08;;
37847;SDS011;23688;33.130;-117.188;2022-09-21T11:40:24;6.80;;;2.40;;
37847;SDS011;23688;33.130;-117.188;2022-09-21T11:42:56;10.60;;;2.70;;
37847;SDS011;23688;33.130;-117.188;2022-09-21T11:59:25;12.43;;;2.50;;
37847;SDS011;23688;33.130;-117.188;2022-09-21T12:04:52;12.27;;;2.22;;
37847;SDS011;23688;33.130;-117.188;2022-09-21T12:07:43;7.93;;;2.33;;
37847;SDS011;23688;33.130;-117.188;2022-09-21T12:13:06;13.80;;;2.70;;
37847;SDS011;23688;33.130;-117.188;2022-09-21T12:15:50;11.68;;;2.78;;
37847;SDS011;23688;33.130;-117.188;2022-09-21T12:18:51;9.73;;;2.25;;
37847;SDS011;23688;33.130;-117.188;2022-09-21T12:21:24;9.45;;;2.20;;
37847;SDS011;23688;33.130;-117.188;2022-09-21T12:24:04;13.32;;;3.10;;
37847;SDS011;23688;33.130;-117.188;2022-09-21T12:26:44;9.27;;;2.97;;
37847;SDS011;23688;33.130;-117.188;2022-09-21T12:34:43;10.48;;;2.15;;
37847;SDS011;23688;33.130;-117.188;2022-09-21T12:37:17;11.65;;;2.65;;
37847;SDS011;23688;33.130;-117.188;2022-09-21T12:40:35;13.35;;;2.60;;
37847;SDS011;23688;33.130;-117.188;2022-09-21T12:45:52;8.40;;;1.90;;
37847;SDS011;23688;33.130;-117.188;2022-09-21T12:48:34;13.30;;;3.33;;
37847;SDS011;23688;33.130;-117.188;2022-09-21T12:54:46;9.55;;;2.80;;
37847;SDS011;23688;33.130;-117.188;2022-09-21T12:57:09;8.88;;;3.42;;
37847;SDS011;23688;33.130;-117.188;2022-09-21T13:00:04;10.77;;;3.92;;
37847;SDS011;23688;33.130;-117.188;2022-09-21T13:08:25;12.68;;;3.47;;
37847;SDS011;23688;33.130;-117.188;2022-09-21T13:11:04;14.00;;;3.35;;
37847;SDS011;23688;33.130;-117.188;2022-09-21T13:13:51;22.83;;;3.03;;
37847;SDS011;23688;33.130;-117.188;2022-09-21T13:16:37;11.70;;;3.50;;
37847;SDS011;23688;33.130;-117.188;2022-09-21T13:19:15;13.55;;;3.63;;
37847;SDS011;23688;33.130;-117.188;2022-09-21T13:21:42;17.13;;;3.47;;
37847;SDS011;23688;33.130;-117.188;2022-09-21T13:24:28;11.73;;;4.00;;
37847;SDS011;23688;33.130;-117.188;2022-09-21T13:26:55;14.43;;;3.13;;
37847;SDS011;23688;33.130;-117.188;2022-09-21T13:29:33;13.40;;;3.40;;
37847;SDS011;23688;33.130;-117.188;2022-09-21T13:34:37;13.90;;;3.38;;
37847;SDS011;23688;33.130;-117.188;2022-09-21T13:39:42;12.93;;;3.22;;
37847;SDS011;23688;33.130;-117.188;2022-09-21T13:44:57;11.93;;;3.13;;
37847;SDS011;23688;33.130;-117.188;2022-09-21T13:47:34;15.20;;;3.78;;
37847;SDS011;23688;33.130;-117.188;2022-09-21T13:52:49;11.40;;;3.70;;
37847;SDS011;23688;33.130;-117.188;2022-09-21T13:58:17;7.28;;;3.42;;
37847;SDS011;23688;33.130;-117.188;2022-09-21T14:03:36;7.40;;;3.10;;
37847;SDS011;23688;33.130;-117.188;2022-09-21T14:08:38;11.32;;;4.32;;
37847;SDS011;23688;33.130;-117.188;2022-09-21T14:11:27;9.77;;;4.13;;
37847;SDS011;23688;33.130;-117.188;2022-09-21T14:30:01;11.52;;;3.13;;
37847;SDS011;23688;33.130;-117.188;2022-09-21T14:35:26;14.82;;;3.72;;
37847;SDS011;23688;33.130;-117.188;2022-09-21T14:38:48;8.02;;;3.83;;
37847;SDS011;23688;33.130;-117.188;2022-09-21T14:41:00;4.78;;;3.78;;
37847;SDS011;23688;33.130;-117.188;2022-09-21T14:43:32;12.55;;;4.40;;
37847;SDS011;23688;33.130;-117.188;2022-09-21T14:54:16;16.02;;;5.40;;
37847;SDS011;23688;33.130;-117.188;2022-09-21T15:00:17;10.23;;;4.97;;
37847;SDS011;23688;33.130;-117.188;2022-09-21T15:05:54;10.23;;;4.35;;
37847;SDS011;23688;33.130;-117.188;2022-09-21T15:11:53;10.68;;;4.32;;
37847;SDS011;23688;33.130;-117.188;2022-09-21T15:17:27;9.25;;;4.63;;
37847;SDS011;23688;33.130;-117.188;2022-09-21T15:19:59;7.75;;;4.72;;
37847;SDS011;23688;33.130;-117.188;2022-09-21T15:22:42;11.35;;;5.55;;
37847;SDS011;23688;33.130;-117.188;2022-09-21T15:25:11;12.18;;;5.70;;
37847;SDS011;23688;33.130;-117.188;2022-09-21T15:27:40;10.93;;;5.57;;
37847;SDS011;23688;33.130;-117.188;2022-09-21T15:30:44;10.60;;;5.70;;
37847;SDS011;23688;33.130;-117.188;2022-09-21T15:33:10;9.90;;;4.97;;
37847;SDS011;23688;33.130;-117.188;2022-09-21T15:35:38;12.65;;;5.50;;
37847;SDS011;23688;33.130;-117.188;2022-09-21T15:38:24;13.70;;;5.45;;
37847;SDS011;23688;33.130;-117.188;2022-09-21T15:40:59;13.95;;;5.28;;
37847;SDS011;23688;33.130;-117.188;2022-09-21T15:43:26;15.63;;;5.88;;
37847;SDS011;23688;33.130;-117.188;2022-09-21T15:46:00;16.67;;;6.28;;
37847;SDS011;23688;33.130;-117.188;2022-09-21T15:48:36;15.38;;;6.07;;
37847;SDS011;23688;33.130;-117.188;2022-09-21T15:51:23;9.48;;;4.38;;
37847;SDS011;23688;33.130;-117.188;2022-09-21T15:53:57;12.93;;;5.45;;
37847;SDS011;23688;33.130;-117.188;2022-09-21T15:56:41;11.88;;;4.93;;
37847;SDS011;23688;33.130;-117.188;2022-09-21T15:59:11;9.45;;;4.80;;
37847;SDS011;23688;33.130;-117.188;2022-09-21T16:01:42;10.40;;;4.13;;
37847;SDS011;23688;33.130;-117.188;2022-09-21T16:04:18;10.30;;;4.10;;
37847;SDS011;23688;33.130;-117.188;2022-09-21T16:06:55;10.65;;;4.85;;
37847;SDS011;23688;33.130;-117.188;2022-09-21T16:11:55;9.10;;;4.03;;
37847;SDS011;23688;33.130;-117.188;2022-09-21T16:14:22;8.55;;;3.53;;
37847;SDS011;23688;33.130;-117.188;2022-09-21T16:22:27;8.70;;;4.10;;
37847;SDS011;23688;33.130;-117.188;2022-09-21T16:25:21;10.98;;;3.63;;
37847;SDS011;23688;33.130;-117.188;2022-09-21T16:28:33;10.27;;;3.90;;
37847;SDS011;23688;33.130;-117.188;2022-09-21T16:30:58;7.70;;;4.40;;
37847;SDS011;23688;33.130;-117.188;2022-09-21T16:33:35;11.07;;;4.85;;
37847;SDS011;23688;33.130;-117.188;2022-09-21T16:36:50;13.30;;;3.60;;
37847;SDS011;23688;33.130;-117.188;2022-09-21T16:38:56;9.20;;;3.45;;
37847;SDS011;23688;33.130;-117.188;2022-09-21T16:42:09;10.60;;;2.92;;
37847;SDS011;23688;33.130;-117.188;2022-09-21T16:44:21;11.10;;;3.47;;
37847;SDS011;23688;33.130;-117.188;2022-09-21T16:46:51;9.70;;;3.05;;
37847;SDS011;23688;33.130;-117.188;2022-09-21T16:49:23;6.53;;;3.33;;
37847;SDS011;23688;33.130;-117.188;2022-09-21T16:51:52;8.10;;;2.80;;
37847;SDS011;23688;33.130;-117.188;2022-09-21T16:54:20;5.53;;;2.65;;
37847;SDS011;23688;33.130;-117.188;2022-09-21T16:59:18;5.30;;;2.35;;
37847;SDS011;23688;33.130;-117.188;2022-09-21T17:01:48;5.65;;;2.22;;
37847;SDS011;23688;33.130;-117.188;2022-09-21T17:04:19;8.25;;;1.50;;
37847;SDS011;23688;33.130;-117.188;2022-09-21T17:06:50;9.73;;;2.75;;
37847;SDS011;23688;33.130;-117.188;2022-09-21T17:09:22;6.57;;;2.03;;
37847;SDS011;23688;33.130;-117.188;2022-09-21T17:12:00;7.32;;;2.05;;
37847;SDS011;23688;33.130;-117.188;2022-09-21T17:14:28;6.15;;;1.65;;
37847;SDS011;23688;33.130;-117.188;2022-09-21T17:19:41;3.92;;;1.48;;
37847;SDS011;23688;33.130;-117.188;2022-09-21T17:22:08;6.18;;;1.80;;
37847;SDS011;23688;33.130;-117.188;2022-09-21T17:24:50;5.00;;;1.92;;
37847;SDS011;23688;33.130;-117.188;2022-09-21T17:27:21;6.15;;;1.75;;
37847;SDS011;23688;33.130;-117.188;2022-09-21T17:29:49;10.25;;;3.00;;
37847;SDS011;23688;33.130;-117.188;2022-09-21T17:32:18;7.72;;;1.80;;
37847;SDS011;23688;33.130;-117.188;2022-09-21T17:37:40;9.10;;;2.08;;
37847;SDS011;23688;33.130;-117.188;2022-09-21T17:40:06;9.80;;;2.05;;
37847;SDS011;23688;33.130;-117.188;2022-09-21T17:42:33;8.93;;;1.70;;
37847;SDS011;23688;33.130;-117.188;2022-09-21T17:47:51;7.25;;;1.70;;
37847;SDS011;23688;33.130;-117.188;2022-09-21T17:50:25;14.73;;;2.28;;
37847;SDS011;23688;33.130;-117.188;2022-09-21T17:52:52;9.95;;;2.20;;
37847;SDS011;23688;33.130;-117.188;2022-09-21T17:55:39;8.05;;;1.45;;
37847;SDS011;23688;33.130;-117.188;2022-09-21T18:03:33;10.68;;;1.48;;
37847;SDS011;23688;33.130;-117.188;2022-09-21T18:06:09;11.20;;;1.75;;
37847;SDS011;23688;33.130;-117.188;2022-09-21T18:08:37;4.32;;;1.35;;
37847;SDS011;23688;33.130;-117.188;2022-09-21T18:13:56;11.85;;;2.08;;
37847;SDS011;23688;33.130;-117.188;2022-09-21T18:16:34;6.28;;;1.92;;
37847;SDS011;23688;33.130;-117.188;2022-09-21T18:24:55;8.93;;;1.48;;
37847;SDS011;23688;33.130;-117.188;2022-09-21T18:27:22;8.43;;;1.58;;
37847;SDS011;23688;33.130;-117.188;2022-09-21T18:29:49;10.73;;;2.00;;
37847;SDS011;23688;33.130;-117.188;2022-09-21T18:48:51;6.30;;;1.50;;
37847;SDS011;23688;33.130;-117.188;2022-09-21T18:54:17;6.13;;;1.27;;
37847;SDS011;23688;33.130;-117.188;2022-09-21T18:56:45;7.82;;;1.00;;
37847;SDS011;23688;33.130;-117.188;2022-09-21T18:59:17;10.27;;;1.98;;
37847;SDS011;23688;33.130;-117.188;2022-09-21T19:01:44;7.82;;;1.40;;